Time;durP1;ratioP1;P1;durP2;ratioP2;P2;SDS_P1;SDS_P2;PMS_P1;PMS_P2;Temp;Humidity;BMP_temperature;BMP_pressure;BME280_temperature;BME280_humidity;BME280_pressure;Samples;Min_cycle;Max_cycle;Signal;HPM_P1;HPM_P2
2023/04/01 00:02:26;;;;;;;9.67;9.30;;;21.10;59.90;;;;;;4995106;28;20874;-68
2023/04/01 00:04:54;;;;;;;10.33;9.73;;;21.10;60.00;;;;;;4995442;28;20443;-67
2023/04/01 00:07:22;;;;;;;10.03;9.73;;;21.10;60.00;;;;;;4995834;28;20936;-67
2023/04/01 00:09:49;;;;;;;9.60;9.30;;;21.10;60.00;;;;;;4994886;28;20510;-66
2023/04/01 00:12:16;;;;;;;10.37;9.97;;;21.00;60.00;;;;;;4994932;28;20816;-67
2023/04/01 00:14:43;;;;;;;9.67;9.30;;;21.00;60.30;;;;;;4994956;28;20454;-67
2023/04/01 00:17:10;;;;;;;10.67;9.97;;;21.00;60.10;;;;;;4994677;28;20478;-68
2023/04/01 00:19:37;;;;;;;9.83;9.63;;;21.00;60.10;;;;;;4994737;28;20486;-67
2023/04/01 00:22:06;;;;;;;9.70;9.40;;;21.00;60.20;;;;;;4994457;28;20478;-68
2023/04/01 00:24:32;;;;;;;9.30;9.10;;;20.90;60.20;;;;;;4994593;28;20477;-68
2023/04/01 00:26:59;;;;;;;9.67;9.37;;;20.90;60.20;;;;;;4994345;28;20872;-67
2023/04/01 00:29:29;;;;;;;9.27;8.97;;;20.90;60.20;;;;;;4994374;28;20498;-68
2023/04/01 00:31:56;;;;;;;9.67;9.40;;;20.90;60.30;;;;;;4994432;28;20941;-67
2023/04/01 00:34:23;;;;;;;9.80;9.40;;;20.90;60.30;;;;;;4994243;28;20521;-68
2023/04/01 00:36:52;;;;;;;9.60;9.30;;;20.80;60.20;;;;;;4994690;28;20471;-67
2023/04/01 00:39:20;;;;;;;10.00;9.60;;;20.90;60.40;;;;;;4994365;28;20490;-67
2023/04/01 00:41:47;;;;;;;9.50;9.20;;;20.80;60.40;;;;;;4994460;28;20459;-67
2023/04/01 00:44:20;;;;;;;10.27;9.87;;;20.80;60.50;;;;;;4994095;28;20478;-67
2023/04/01 00:46:47;;;;;;;9.20;8.90;;;20.80;60.50;;;;;;4993875;28;20486;-67
2023/04/01 00:49:16;;;;;;;9.30;9.00;;;20.80;60.50;;;;;;4994052;28;20498;-67
2023/04/01 00:51:46;;;;;;;9.40;9.10;;;20.80;60.60;;;;;;4994080;28;20482;-67
2023/04/01 00:54:14;;;;;;;10.00;9.67;;;20.80;60.60;;;;;;4993782;28;20530;-67
2023/04/01 00:56:48;;;;;;;9.80;9.23;;;20.70;60.60;;;;;;4994225;28;20450;-67
2023/04/01 00:59:19;;;;;;;9.80;9.50;;;20.70;60.70;;;;;;4993918;28;20485;-67
2023/04/01 01:01:46;;;;;;;9.10;8.90;;;20.70;60.70;;;;;;4993597;28;20451;-66
2023/04/01 01:04:23;;;;;;;9.23;9.03;;;20.70;60.70;;;;;;4994053;28;20478;-68
2023/04/01 01:07:00;;;;;;;8.97;8.67;;;20.70;60.70;;;;;;4994153;28;20467;-68
2023/04/01 01:09:34;;;;;;;9.27;9.07;;;20.70;60.80;;;;;;4993251;28;20545;-67
2023/04/01 01:12:12;;;;;;;9.10;8.90;;;20.60;60.70;;;;;;4993259;28;20439;-67
2023/04/01 01:14:51;;;;;;;9.57;9.30;;;20.70;60.90;;;;;;4993528;28;20529;-67
2023/04/01 01:17:28;;;;;;;9.07;8.87;;;20.60;60.90;;;;;;4993307;28;20478;-66
2023/04/01 01:20:22;;;;;;;10.10;9.80;;;20.60;60.90;;;;;;4993257;28;20931;-67
2023/04/01 01:23:23;;;;;;;11.27;10.80;;;20.60;60.90;;;;;;4993110;28;20878;-67
2023/04/01 01:26:00;;;;;;;9.30;8.97;;;20.60;61.10;;;;;;4970813;28;20501;-67
2023/04/01 01:28:42;;;;;;;9.57;9.27;;;20.60;61.20;;;;;;4993085;28;20504;-66
2023/04/01 01:31:17;;;;;;;9.30;9.10;;;20.60;61.30;;;;;;4992996;28;20483;-67
2023/04/01 01:34:01;;;;;;;9.10;8.90;;;20.50;61.20;;;;;;4993137;28;20482;-67
2023/04/01 01:36:34;;;;;;;9.90;9.70;;;20.50;61.40;;;;;;4993210;28;20486;-67
2023/04/01 01:39:03;;;;;;;10.10;9.80;;;20.60;61.60;;;;;;4992578;28;20495;-67
2023/04/01 01:41:32;;;;;;;8.70;8.50;;;20.50;61.70;;;;;;4992870;28;20501;-67
2023/04/01 01:44:03;;;;;;;9.53;9.33;;;20.50;62.60;;;;;;4993001;28;20490;-67
2023/04/01 01:46:32;;;;;;;9.33;9.03;;;20.60;61.80;;;;;;4992613;28;20553;-67
2023/04/01 01:49:01;;;;;;;9.00;8.80;;;20.50;61.60;;;;;;4992573;28;20495;-67
2023/04/01 01:51:30;;;;;;;10.40;10.00;;;20.60;61.70;;;;;;4992912;28;20470;-67
2023/04/01 01:53:57;;;;;;;9.53;9.33;;;20.50;61.70;;;;;;4992793;28;20540;-67
2023/04/01 01:56:28;;;;;;;8.80;8.60;;;20.50;61.70;;;;;;4993138;28;20955;-67
2023/04/01 01:58:59;;;;;;;9.67;9.37;;;20.50;61.60;;;;;;4992435;28;20526;-68
2023/04/01 02:01:30;;;;;;;9.53;9.30;;;20.50;61.80;;;;;;4992482;28;20486;-67
2023/04/01 02:03:58;;;;;;;8.87;8.67;;;20.50;61.70;;;;;;4992590;28;20450;-68
2023/04/01 02:06:29;;;;;;;9.23;9.03;;;20.50;61.80;;;;;;4991777;28;20975;-68
2023/04/01 02:09:02;;;;;;;8.60;8.40;;;20.50;61.80;;;;;;5019349;22;20556;-66
2023/04/01 02:11:35;;;;;;;8.60;8.40;;;20.50;61.70;;;;;;5011827;28;21013;-66
2023/04/01 02:14:06;;;;;;;9.17;8.83;;;20.50;61.70;;;;;;5011860;28;20442;-66
2023/04/01 02:16:36;;;;;;;9.40;9.20;;;20.50;61.80;;;;;;5012002;28;20450;-66
2023/04/01 02:19:07;;;;;;;9.60;9.20;;;20.50;61.80;;;;;;5011648;28;20577;-66
2023/04/01 02:21:35;;;;;;;9.80;9.60;;;20.50;61.80;;;;;;5011860;28;20931;-66
2023/04/01 02:24:08;;;;;;;9.10;8.90;;;20.40;61.80;;;;;;5011885;28;20990;-66
2023/04/01 02:26:35;;;;;;;9.47;9.10;;;20.40;61.80;;;;;;5011729;28;20824;-66
2023/04/01 02:29:05;;;;;;;8.90;8.70;;;20.40;61.90;;;;;;5011513;28;20870;-66
2023/04/01 02:31:33;;;;;;;9.10;8.80;;;20.40;62.00;;;;;;5011861;28;20524;-66
2023/04/01 02:34:00;;;;;;;9.90;9.60;;;20.40;61.90;;;;;;5011850;28;20524;-66
2023/04/01 02:36:27;;;;;;;9.17;8.97;;;20.40;61.90;;;;;;5011671;28;20537;-66
2023/04/01 02:38:58;;;;;;;8.87;8.50;;;20.40;61.80;;;;;;5011367;28;20907;-66
2023/04/01 02:41:27;;;;;;;8.97;8.67;;;20.40;61.90;;;;;;5011792;28;20450;-67
2023/04/01 02:43:54;;;;;;;9.60;9.40;;;20.30;61.90;;;;;;5011582;28;20533;-66
2023/04/01 02:46:21;;;;;;;9.17;8.90;;;20.30;61.90;;;;;;5011628;28;20460;-67
2023/04/01 02:48:48;;;;;;;9.13;8.93;;;20.30;62.00;;;;;;5011102;28;20537;-66
2023/04/01 02:51:15;;;;;;;8.10;7.90;;;20.30;62.00;;;;;;5011513;28;20484;-66
2023/04/01 02:53:42;;;;;;;8.77;8.60;;;20.30;62.00;;;;;;5011528;28;20990;-66
2023/04/01 02:56:09;;;;;;;9.33;8.83;;;20.30;62.10;;;;;;5011620;28;20553;-66
2023/04/01 02:58:37;;;;;;;8.57;8.37;;;20.30;62.20;;;;;;5011098;28;20474;-66
2023/04/01 03:01:04;;;;;;;9.47;9.27;;;20.30;62.30;;;;;;5011410;28;20493;-66
2023/04/01 03:03:31;;;;;;;8.60;8.40;;;20.30;62.40;;;;;;5011553;28;20533;-66
2023/04/01 03:05:59;;;;;;;8.70;8.13;;;20.30;62.40;;;;;;5011396;28;20532;-66
2023/04/01 03:08:26;;;;;;;7.80;7.70;;;20.20;62.30;;;;;;5011264;28;20473;-66
2023/04/01 03:10:53;;;;;;;8.00;7.80;;;20.30;62.50;;;;;;5011013;28;20995;-67
2023/04/01 03:13:20;;;;;;;8.00;7.90;;;20.20;62.40;;;;;;5011596;28;20998;-66
2023/04/01 03:15:48;;;;;;;7.90;7.70;;;20.20;62.30;;;;;;5011427;28;20875;-66
2023/04/01 03:18:15;;;;;;;7.80;7.60;;;20.20;62.20;;;;;;5014572;28;20473;-66
2023/04/01 03:20:42;;;;;;;8.70;8.50;;;20.20;62.30;;;;;;5014757;28;20572;-66
2023/04/01 03:23:09;;;;;;;7.70;7.50;;;20.20;62.20;;;;;;5014694;28;20474;-66
2023/04/01 03:25:36;;;;;;;7.50;7.40;;;20.20;62.30;;;;;;5014795;28;20882;-66
2023/04/01 03:28:03;;;;;;;7.80;7.60;;;20.20;62.30;;;;;;5014564;28;20881;-66
2023/04/01 03:30:31;;;;;;;7.47;7.37;;;20.20;63.10;;;;;;5014920;28;20496;-66
2023/04/01 03:33:00;;;;;;;7.30;7.20;;;20.20;62.50;;;;;;5014477;28;20457;-66
2023/04/01 03:35:27;;;;;;;8.67;8.47;;;20.20;62.50;;;;;;5014683;28;20456;-66
2023/04/01 03:37:54;;;;;;;8.30;8.10;;;20.10;62.50;;;;;;5014455;28;20553;-68
2023/04/01 03:40:22;;;;;;;7.60;7.43;;;20.10;62.50;;;;;;5014308;28;20525;-67
2023/04/01 03:42:48;;;;;;;8.30;8.10;;;20.10;62.70;;;;;;5014281;28;20528;-67
2023/04/01 03:45:16;;;;;;;8.40;8.20;;;20.10;62.60;;;;;;5014419;28;20474;-67
2023/04/01 03:47:43;;;;;;;8.40;8.20;;;20.10;62.70;;;;;;5014283;28;20871;-67
2023/04/01 03:50:11;;;;;;;8.67;8.47;;;20.10;62.60;;;;;;5014390;28;20494;-67
2023/04/01 03:52:39;;;;;;;7.80;7.60;;;20.10;62.70;;;;;;5014252;28;20481;-68
2023/04/01 03:55:07;;;;;;;8.70;8.50;;;20.10;62.80;;;;;;5014035;28;20508;-67
2023/04/01 03:57:34;;;;;;;8.43;8.13;;;20.10;62.90;;;;;;5014004;28;20450;-68
2023/04/01 04:00:01;;;;;;;8.30;8.00;;;20.10;63.10;;;;;;5014053;28;20497;-67
2023/04/01 04:02:28;;;;;;;8.03;7.90;;;20.10;63.20;;;;;;5014198;28;20836;-67
2023/04/01 04:04:55;;;;;;;7.50;7.40;;;20.10;63.30;;;;;;5014003;28;20470;-68
2023/04/01 04:07:23;;;;;;;7.53;7.33;;;20.10;63.30;;;;;;5013919;28;20481;-68
2023/04/01 04:09:50;;;;;;;8.30;8.10;;;20.10;63.50;;;;;;5013776;28;20564;-68
2023/04/01 04:12:17;;;;;;;8.10;7.90;;;20.10;63.50;;;;;;5013718;28;20525;-67
2023/04/01 04:14:44;;;;;;;7.73;7.57;;;20.10;63.60;;;;;;5013948;28;20473;-67
2023/04/01 04:17:15;;;;;;;8.50;8.30;;;20.10;63.70;;;;;;5013689;28;20457;-68
2023/04/01 04:19:42;;;;;;;8.33;8.10;;;20.10;63.70;;;;;;5013656;28;21069;-67
2023/04/01 04:22:09;;;;;;;8.10;7.90;;;20.10;63.70;;;;;;5013810;28;20482;-68
2023/04/01 04:24:38;;;;;;;8.10;7.90;;;20.10;63.70;;;;;;5013672;28;20534;-67
2023/04/01 04:27:05;;;;;;;8.33;8.13;;;20.10;63.60;;;;;;5013502;28;20515;-67
2023/04/01 04:29:32;;;;;;;9.10;8.90;;;20.10;63.70;;;;;;5012793;28;20550;-67
2023/04/01 04:31:59;;;;;;;8.20;8.00;;;20.00;64.50;;;;;;5013079;28;20529;-67
2023/04/01 04:34:26;;;;;;;8.13;8.03;;;20.10;63.80;;;;;;5013502;28;20477;-67
2023/04/01 04:36:53;;;;;;;8.03;7.87;;;20.00;63.80;;;;;;5013547;28;20481;-67
2023/04/01 04:39:19;;;;;;;8.00;7.90;;;20.00;63.70;;;;;;5013046;28;20541;-67
2023/04/01 04:41:48;;;;;;;8.50;8.30;;;20.00;63.70;;;;;;5013251;28;20450;-68
2023/04/01 04:44:15;;;;;;;8.60;8.40;;;20.00;63.70;;;;;;5013350;28;20482;-68
2023/04/01 04:46:42;;;;;;;7.40;7.30;;;20.00;63.90;;;;;;5013338;28;20890;-67
2023/04/01 04:49:09;;;;;;;7.70;7.60;;;20.00;63.80;;;;;;5013052;28;20553;-68
2023/04/01 04:51:36;;;;;;;7.80;7.60;;;20.00;63.90;;;;;;5013175;28;20490;-68
2023/04/01 04:54:03;;;;;;;7.47;7.37;;;20.00;63.80;;;;;;5012892;28;20451;-65
2023/04/01 04:56:30;;;;;;;9.23;9.03;;;20.00;63.80;;;;;;5012928;28;20549;-66
2023/04/01 04:58:59;;;;;;;8.57;8.47;;;20.00;63.30;;;;;;5012939;28;20844;-67
2023/04/01 05:01:26;;;;;;;9.50;9.30;;;20.10;63.90;;;;;;5013268;28;20569;-67
2023/04/01 05:03:53;;;;;;;9.13;8.93;;;20.10;64.20;;;;;;5012921;28;20536;-66
2023/04/01 05:06:20;;;;;;;8.23;8.03;;;20.10;64.20;;;;;;5012901;28;20541;-67
2023/04/01 05:08:47;;;;;;;8.10;8.00;;;20.20;64.10;;;;;;5012615;28;20987;-66
2023/04/01 05:11:17;;;;;;;8.97;8.77;;;20.20;64.50;;;;;;5012857;28;20564;-65
2023/04/01 05:13:44;;;;;;;7.50;7.37;;;20.30;65.00;;;;;;5012861;28;20482;-65
2023/04/01 05:16:15;;;;;;;7.60;7.47;;;20.30;64.70;;;;;;5012500;28;20446;-64
2023/04/01 05:18:42;;;;;;;8.47;8.27;;;20.30;64.40;;;;;;5012822;28;20474;-68
2023/04/01 05:21:10;;;;;;;9.17;8.97;;;20.30;64.70;;;;;;5012578;28;20907;-66
2023/04/01 05:23:38;;;;;;;8.60;8.40;;;20.30;64.50;;;;;;5013178;28;20533;-65
2023/04/01 05:26:05;;;;;;;8.05;7.85;;;20.40;64.90;;;;;;5012928;28;20442;-66
2023/04/01 05:28:32;;;;;;;10.30;10.10;;;20.50;65.40;;;;;;5013475;28;20261;-69
2023/04/01 05:31:00;;;;;;;9.87;9.67;;;20.60;64.90;;;;;;5005628;28;20534;-68
2023/04/01 05:33:29;;;;;;;10.30;10.10;;;20.70;64.50;;;;;;5012745;28;20876;-68
2023/04/01 05:35:57;;;;;;;10.40;10.20;;;20.80;64.10;;;;;;5012499;28;21008;-68
2023/04/01 05:38:24;;;;;;;9.70;9.50;;;20.80;64.00;;;;;;5012197;28;20537;-67
2023/04/01 05:40:50;;;;;;;10.37;10.17;;;20.80;63.80;;;;;;5011319;28;20661;-69
2023/04/01 05:43:17;;;;;;;9.37;9.17;;;20.90;63.70;;;;;;5012415;28;20488;-69
2023/04/01 05:45:44;;;;;;;10.43;10.23;;;21.00;63.70;;;;;;5012326;28;20541;-68
2023/04/01 05:48:11;;;;;;;10.40;10.10;;;21.00;63.70;;;;;;5012362;28;20532;-69
2023/04/01 05:50:41;;;;;;;9.63;9.33;;;21.00;63.70;;;;;;5012768;28;20497;-67
2023/04/01 05:53:07;;;;;;;9.20;9.00;;;21.10;63.60;;;;;;5012896;28;20532;-68
2023/04/01 05:55:36;;;;;;;9.53;9.33;;;21.10;63.50;;;;;;5013363;28;20476;-68
2023/04/01 05:58:03;;;;;;;9.60;9.40;;;21.20;63.40;;;;;;5012844;28;20480;-67
2023/04/01 06:00:30;;;;;;;10.10;9.80;;;21.20;63.30;;;;;;5012475;28;20577;-68
2023/04/01 06:03:00;;;;;;;9.77;9.57;;;21.20;63.20;;;;;;5012078;28;20549;-68
2023/04/01 06:05:29;;;;;;;10.27;9.97;;;21.20;63.10;;;;;;5012601;28;20457;-69
2023/04/01 06:08:01;;;;;;;9.70;9.40;;;21.20;63.00;;;;;;5011919;28;21179;-68
2023/04/01 06:10:40;;;;;;;9.20;9.00;;;21.20;63.00;;;;;;5011794;28;20473;-68
2023/04/01 06:13:13;;;;;;;8.50;8.40;;;21.20;62.90;;;;;;5011739;28;20481;-68
2023/04/01 06:15:49;;;;;;;9.27;9.07;;;21.20;63.00;;;;;;5011958;28;20488;-68
2023/04/01 06:18:50;;;;;;;9.67;9.30;;;21.20;63.00;;;;;;5011709;28;20529;-68
2023/04/01 06:21:42;;;;;;;9.57;9.30;;;21.20;63.00;;;;;;5011643;28;20477;-68
2023/04/01 06:24:28;;;;;;;9.60;9.30;;;21.20;63.10;;;;;;5011916;28;20478;-69
2023/04/01 06:27:08;;;;;;;9.40;9.20;;;21.20;63.20;;;;;;5012049;28;20536;-68
2023/04/01 06:29:52;;;;;;;9.20;9.00;;;21.20;63.20;;;;;;5011988;28;20556;-68
2023/04/01 06:32:31;;;;;;;9.30;9.10;;;21.20;63.30;;;;;;5011983;28;20530;-70
2023/04/01 06:35:23;;;;;;;8.53;8.33;;;21.20;63.20;;;;;;5012651;28;20533;-70
2023/04/01 06:38:23;;;;;;;9.20;9.00;;;21.20;63.30;;;;;;5011870;28;20481;-68
2023/04/01 06:41:14;;;;;;;10.20;9.93;;;21.20;63.20;;;;;;5006741;28;20572;-69
2023/04/01 06:43:50;;;;;;;9.73;9.53;;;21.20;63.30;;;;;;5012596;28;20529;-66
2023/04/01 06:46:22;;;;;;;9.80;9.60;;;21.30;63.60;;;;;;5012808;28;20529;-67
2023/04/01 06:49:09;;;;;;;9.60;9.40;;;21.30;63.20;;;;;;5012068;28;20896;-66
2023/04/01 06:51:45;;;;;;;9.80;9.60;;;21.30;62.90;;;;;;5013162;28;20473;-67
2023/04/01 06:54:17;;;;;;;9.30;9.10;;;21.40;62.70;;;;;;5016651;28;20871;-66
2023/04/01 06:56:49;;;;;;;9.70;9.50;;;21.50;62.60;;;;;;5016644;28;20476;-66
2023/04/01 06:59:20;;;;;;;9.50;9.30;;;21.50;62.30;;;;;;5016417;28;20528;-67
2023/04/01 07:01:51;;;;;;;9.20;9.00;;;21.50;62.10;;;;;;5016583;28;20517;-67
2023/04/01 07:04:23;;;;;;;9.03;8.83;;;21.50;62.00;;;;;;5016337;28;20481;-67
2023/04/01 07:06:54;;;;;;;9.63;9.43;;;21.60;61.90;;;;;;5016173;28;20485;-67
2023/04/01 07:09:25;;;;;;;10.97;10.77;;;21.60;61.70;;;;;;5015261;28;20485;-69
2023/04/01 07:11:57;;;;;;;9.30;9.10;;;21.70;61.50;;;;;;5016420;28;20528;-68
2023/04/01 07:14:29;;;;;;;9.00;8.80;;;21.70;61.30;;;;;;5015102;28;20540;-69
2023/04/01 07:17:02;;;;;;;9.30;9.10;;;21.80;61.20;;;;;;5015002;28;20452;-69
2023/04/01 07:19:34;;;;;;;10.30;10.10;;;21.80;61.00;;;;;;5014963;28;20548;-68
2023/04/01 07:22:05;;;;;;;9.17;8.97;;;21.80;60.90;;;;;;5015298;28;20572;-66
2023/04/01 07:24:35;;;;;;;8.87;8.67;;;21.80;61.00;;;;;;5014945;28;20450;-67
2023/04/01 07:27:06;;;;;;;9.30;9.10;;;21.80;60.90;;;;;;5014733;28;20826;-63
2023/04/01 07:29:33;;;;;;;9.80;9.60;;;21.80;60.80;;;;;;5015118;28;20556;-65
2023/04/01 07:32:15;;;;;;;9.97;9.77;;;21.80;60.70;;;;;;5014834;28;20533;-64
2023/04/01 07:34:55;;;;;;;10.13;9.93;;;21.80;60.50;;;;;;5015639;28;20985;-65
2023/04/01 07:37:30;;;;;;;10.47;10.27;;;21.90;60.50;;;;;;5014973;28;20525;-63
2023/04/01 07:40:08;;;;;;;9.87;9.67;;;21.90;60.40;;;;;;5014560;28;20500;-64
2023/04/01 07:42:50;;;;;;;10.47;10.27;;;22.00;60.40;;;;;;5014594;28;20474;-64
2023/04/01 07:45:24;;;;;;;9.53;9.13;;;22.00;60.30;;;;;;5014638;28;20474;-64
2023/04/01 07:48:05;;;;;;;9.57;9.37;;;22.00;60.20;;;;;;5014559;28;20457;-64
2023/04/01 07:50:37;;;;;;;10.07;9.87;;;22.00;60.10;;;;;;5014501;28;20891;-65
2023/04/01 07:53:13;;;;;;;9.57;9.37;;;22.10;60.90;;;;;;5014442;28;20485;-65
2023/04/01 07:55:46;;;;;;;9.67;9.47;;;22.10;59.90;;;;;;5014425;28;20489;-65
2023/04/01 07:58:23;;;;;;;10.17;9.97;;;22.10;59.80;;;;;;5014298;28;20994;-64
2023/04/01 08:00:55;;;;;;;9.70;9.50;;;22.10;59.80;;;;;;5014698;28;20565;-62
2023/04/01 08:03:39;;;;;;;9.53;9.33;;;22.10;60.00;;;;;;5014217;28;21518;-63
2023/04/01 08:06:14;;;;;;;9.40;9.20;;;22.10;59.70;;;;;;5015499;28;20540;-63
2023/04/01 08:08:54;;;;;;;9.40;9.20;;;22.20;59.70;;;;;;5015350;28;20488;-62
2023/04/01 08:11:32;;;;;;;9.63;9.43;;;22.20;59.60;;;;;;5016243;28;20473;-63
2023/04/01 08:14:06;;;;;;;9.40;9.20;;;22.20;59.50;;;;;;5015297;28;20478;-63
2023/04/01 08:16:38;;;;;;;9.70;9.50;;;22.20;59.40;;;;;;5014703;28;20525;-64
2023/04/01 08:19:16;;;;;;;9.80;9.60;;;22.30;59.40;;;;;;5014633;28;20493;-66
2023/04/01 08:21:46;;;;;;;9.80;9.60;;;22.30;59.30;;;;;;5014686;28;20482;-63
2023/04/01 08:24:26;;;;;;;9.47;9.27;;;22.30;59.20;;;;;;5014927;28;20876;-61
2023/04/01 08:26:56;;;;;;;9.50;9.30;;;22.30;59.20;;;;;;5014317;28;20446;-63
2023/04/01 08:29:36;;;;;;;9.50;9.20;;;22.40;59.60;;;;;;5014613;28;20516;-63
2023/04/01 08:32:10;;;;;;;9.33;9.13;;;22.40;59.50;;;;;;5013964;28;20449;-64
2023/04/01 08:34:40;;;;;;;9.80;9.60;;;22.50;59.70;;;;;;5013876;28;20940;-65
2023/04/01 08:37:11;;;;;;;9.50;9.30;;;22.50;59.60;;;;;;5012933;28;20446;-65
2023/04/01 08:39:42;;;;;;;10.60;10.40;;;22.50;59.40;;;;;;5014226;28;20552;-64
2023/04/01 08:42:36;;;;;;;9.70;9.50;;;22.50;59.00;;;;;;5014709;28;20517;-65
2023/04/01 08:45:30;;;;;;;9.60;9.40;;;22.50;58.70;;;;;;5014107;28;20470;-65
2023/04/01 08:48:27;;;;;;;10.10;9.80;;;22.50;58.30;;;;;;5014140;28;20932;-65
2023/04/01 08:51:17;;;;;;;9.73;9.53;;;22.50;59.30;;;;;;4994163;28;20550;-65
2023/04/01 08:54:11;;;;;;;9.60;9.40;;;22.50;59.00;;;;;;4994280;28;20538;-67
2023/04/01 08:56:43;;;;;;;10.20;10.00;;;22.50;59.10;;;;;;4993985;28;20647;-67
2023/04/01 08:59:28;;;;;;;9.63;9.43;;;22.50;59.00;;;;;;5001739;28;20481;-65
2023/04/01 09:02:26;;;;;;;9.57;9.37;;;22.50;58.80;;;;;;5014125;28;20481;-63
2023/04/01 09:05:36;;;;;;;10.03;9.83;;;22.50;58.50;;;;;;5014166;28;20457;-64
2023/04/01 09:08:17;;;;;;;10.10;9.90;;;22.50;58.50;;;;;;5012939;28;20456;-64
2023/04/01 09:11:09;;;;;;;10.30;10.03;;;22.50;58.50;;;;;;5012778;28;20564;-64
2023/04/01 09:14:05;;;;;;;10.50;10.27;;;22.50;58.60;;;;;;5013223;28;20529;-65
2023/04/01 09:16:57;;;;;;;10.97;10.57;;;22.40;58.70;;;;;;5013674;28;20481;-64
2023/04/01 09:19:44;;;;;;;10.10;9.90;;;22.40;59.00;;;;;;5012098;28;20512;-63
2023/04/01 09:22:27;;;;;;;9.73;9.50;;;22.40;59.10;;;;;;5013507;28;20515;-64
2023/04/01 09:25:24;;;;;;;9.33;9.13;;;22.40;59.10;;;;;;5013392;28;20478;-63
2023/04/01 09:27:58;;;;;;;9.53;9.33;;;22.40;59.00;;;;;;5010101;28;20515;-65
2023/04/01 09:31:05;;;;;;;10.17;9.70;;;22.40;59.10;;;;;;5013881;28;20473;-68
2023/04/01 09:33:59;;;;;;;10.33;10.13;;;22.50;59.00;;;;;;5003715;28;20974;-63
2023/04/01 09:36:40;;;;;;;11.00;10.60;;;22.50;58.90;;;;;;5000665;28;20454;-64
2023/04/01 09:39:25;;;;;;;10.43;10.20;;;22.50;58.80;;;;;;5012789;28;20815;-61
2023/04/01 09:42:03;;;;;;;10.00;9.80;;;22.50;58.60;;;;;;5012103;28;20536;-62
2023/04/01 09:44:35;;;;;;;10.40;10.20;;;22.50;58.60;;;;;;5013030;28;20541;-66
2023/04/01 09:47:23;;;;;;;10.50;10.30;;;22.50;58.50;;;;;;5013366;28;20766;-65
2023/04/01 09:50:07;;;;;;;10.60;10.40;;;22.50;58.50;;;;;;5013165;28;20498;-64
2023/04/01 09:52:41;;;;;;;10.27;10.00;;;22.60;58.80;;;;;;5012581;28;20481;-64
2023/04/01 09:55:49;;;;;;;10.50;10.30;;;22.60;58.60;;;;;;5012253;28;20541;-64
2023/04/01 09:58:41;;;;;;;10.20;10.00;;;22.50;58.80;;;;;;5012502;28;20454;-64
2023/04/01 10:01:57;;;;;;;10.07;9.87;;;22.50;59.30;;;;;;5012841;28;20514;-65
2023/04/01 10:05:08;;;;;;;11.30;11.00;;;22.50;59.10;;;;;;4971405;28;20456;-66
2023/04/01 10:08:24;;;;;;;11.70;11.40;;;22.50;59.00;;;;;;5011191;28;20852;-66
2023/04/01 10:11:19;;;;;;;10.30;10.10;;;22.50;59.10;;;;;;4951199;29;20520;-66
2023/04/01 10:14:18;;;;;;;9.77;9.57;;;22.50;59.00;;;;;;4951812;28;20535;-66
2023/04/01 10:17:18;;;;;;;10.20;9.90;;;22.50;59.10;;;;;;5002659;28;20542;-66
2023/04/01 10:20:21;;;;;;;10.70;10.40;;;22.50;59.10;;;;;;5008427;28;20509;-66
2023/04/01 10:23:12;;;;;;;10.40;10.00;;;22.50;59.10;;;;;;5001644;28;20481;-65
2023/04/01 10:26:15;;;;;;;8.30;8.10;;;22.50;59.00;;;;;;5011378;28;20525;-62
2023/04/01 10:29:03;;;;;;;10.57;10.27;;;22.50;58.90;;;;;;5016058;28;20203;-63
2023/04/01 10:31:48;;;;;;;9.80;9.60;;;22.60;59.10;;;;;;5015851;28;20999;-63
2023/04/01 10:34:42;;;;;;;10.23;10.03;;;22.60;58.40;;;;;;5016363;28;20536;-66
2023/04/01 10:37:25;;;;;;;10.10;9.90;;;22.60;58.50;;;;;;5015982;28;20947;-65
2023/04/01 10:40:35;;;;;;;9.70;9.50;;;22.70;58.80;;;;;;5015883;28;20465;-67
2023/04/01 10:43:33;;;;;;;9.80;9.60;;;22.70;58.90;;;;;;5012078;28;21021;-65
2023/04/01 10:46:47;;;;;;;9.77;9.57;;;22.70;58.90;;;;;;5009304;28;20457;-66
2023/04/01 10:49:44;;;;;;;9.50;9.30;;;22.70;58.90;;;;;;5015597;28;20512;-66
2023/04/01 10:52:40;;;;;;;9.63;9.43;;;22.70;59.00;;;;;;5015259;28;20521;-66
2023/04/01 10:55:36;;;;;;;10.73;10.43;;;22.70;58.90;;;;;;5015062;28;20478;-65
2023/04/01 10:58:35;;;;;;;10.40;10.13;;;22.80;59.10;;;;;;5016001;28;20500;-64
2023/04/01 11:01:38;;;;;;;9.90;9.70;;;22.80;59.20;;;;;;5015997;28;20446;-65
2023/04/01 11:04:40;;;;;;;9.10;8.90;;;22.80;59.20;;;;;;4984274;28;20526;-66
2023/04/01 11:07:40;;;;;;;10.07;9.87;;;22.80;59.20;;;;;;4997201;28;20493;-64
2023/04/01 11:10:51;;;;;;;9.83;9.63;;;22.80;58.80;;;;;;4997242;28;20541;-64
2023/04/01 11:14:08;;;;;;;9.73;9.53;;;22.70;59.20;;;;;;4997464;28;20478;-64
2023/04/01 11:16:55;;;;;;;9.80;9.60;;;22.70;59.30;;;;;;5004373;28;20633;-65
2023/04/01 11:20:02;;;;;;;11.53;11.20;;;22.70;59.40;;;;;;5015219;28;20489;-67
2023/04/01 11:23:01;;;;;;;9.53;9.33;;;22.70;59.50;;;;;;5015763;28;20572;-66
2023/04/01 11:25:53;;;;;;;9.83;9.63;;;22.70;59.50;;;;;;5016533;28;20480;-66
2023/04/01 11:28:49;;;;;;;11.23;10.93;;;22.70;59.60;;;;;;5015938;28;20477;-65
2023/04/01 11:31:35;;;;;;;10.80;10.50;;;22.70;59.60;;;;;;5015849;28;20534;-66
2023/04/01 11:34:14;;;;;;;10.23;10.03;;;22.60;59.50;;;;;;5016010;28;20492;-66
2023/04/01 11:36:51;;;;;;;10.03;9.83;;;22.70;59.70;;;;;;5015290;28;20489;-66
2023/04/01 11:39:30;;;;;;;10.87;10.67;;;22.70;59.60;;;;;;5015040;28;20493;-65
2023/04/01 11:42:10;;;;;;;10.60;10.40;;;22.60;59.50;;;;;;5015000;28;20568;-62
2023/04/01 11:44:44;;;;;;;9.40;9.00;;;22.70;59.40;;;;;;5014357;28;20487;-63
2023/04/01 11:47:46;;;;;;;10.63;10.43;;;22.70;59.50;;;;;;5014318;28;20246;-62
2023/04/01 11:50:24;;;;;;;10.53;10.33;;;22.70;59.30;;;;;;5004340;28;20557;-65
2023/04/01 11:53:19;;;;;;;9.97;9.67;;;22.70;59.20;;;;;;5014669;28;20474;-64
2023/04/01 11:55:59;;;;;;;10.97;10.67;;;22.70;59.20;;;;;;5014552;28;20528;-64
2023/04/01 11:58:50;;;;;;;10.73;10.43;;;22.70;59.20;;;;;;5014471;28;20999;-64
2023/04/01 12:01:26;;;;;;;10.77;10.57;;;22.70;59.40;;;;;;5007967;28;20894;-63
2023/04/01 12:04:22;;;;;;;11.13;10.83;;;22.70;59.60;;;;;;5014538;28;20532;-64
2023/04/01 12:06:55;;;;;;;11.23;10.93;;;22.70;59.80;;;;;;5015264;28;20478;-64
2023/04/01 12:09:31;;;;;;;10.57;10.27;;;22.70;59.40;;;;;;5015429;28;21046;-64
2023/04/01 12:12:11;;;;;;;11.30;10.90;;;22.70;59.30;;;;;;5014756;28;20453;-63
2023/04/01 12:14:50;;;;;;;10.90;10.30;;;22.70;59.20;;;;;;5014649;28;20446;-61
2023/04/01 12:17:31;;;;;;;10.77;10.50;;;22.70;58.80;;;;;;5015347;28;20488;-63
2023/04/01 12:20:10;;;;;;;11.17;10.97;;;22.70;58.70;;;;;;5015299;28;20501;-62
2023/04/01 12:22:49;;;;;;;10.70;10.30;;;22.70;59.20;;;;;;5014407;28;20913;-63
2023/04/01 12:25:28;;;;;;;10.47;10.23;;;22.70;59.10;;;;;;5014347;28;20460;-62
2023/04/01 12:28:04;;;;;;;10.53;10.33;;;22.70;59.10;;;;;;5013611;28;20493;-63
2023/04/01 12:30:48;;;;;;;10.83;10.53;;;22.80;59.10;;;;;;5013748;28;20497;-63
2023/04/01 12:33:57;;;;;;;10.40;10.10;;;22.80;59.00;;;;;;5013660;28;20869;-64
2023/04/01 12:36:45;;;;;;;10.10;9.90;;;22.90;59.00;;;;;;4982784;28;21014;-65
2023/04/01 12:39:45;;;;;;;10.50;10.20;;;22.90;59.00;;;;;;5014370;28;20461;-64
2023/04/01 12:42:25;;;;;;;9.80;9.60;;;22.90;58.90;;;;;;5011201;28;20481;-64
2023/04/01 12:45:05;;;;;;;9.27;8.97;;;22.90;58.80;;;;;;5015008;28;20556;-65
2023/04/01 12:47:57;;;;;;;10.47;10.27;;;22.90;58.80;;;;;;5015847;28;20454;-66
2023/04/01 12:50:41;;;;;;;9.60;9.40;;;22.90;59.20;;;;;;5014824;28;20497;-65
2023/04/01 12:53:24;;;;;;;10.30;10.00;;;23.00;58.70;;;;;;5013919;28;20517;-65
2023/04/01 12:55:52;;;;;;;10.20;10.00;;;23.00;58.60;;;;;;5015244;28;20964;-66
2023/04/01 12:58:56;;;;;;;10.87;10.50;;;23.00;58.70;;;;;;5014874;28;20804;-65
2023/04/01 13:01:51;;;;;;;12.33;12.03;;;23.00;58.60;;;;;;5013501;28;20529;-66
2023/04/01 13:05:11;;;;;;;10.20;10.00;;;23.00;58.60;;;;;;5009223;28;20486;-65
2023/04/01 13:07:59;;;;;;;10.00;9.70;;;23.00;58.50;;;;;;4971472;28;20448;-64
2023/04/01 13:10:39;;;;;;;10.10;9.80;;;23.00;58.50;;;;;;5012952;28;20480;-64
2023/04/01 13:13:44;;;;;;;11.33;10.93;;;23.00;58.50;;;;;;5012938;28;20520;-68
2023/04/01 13:16:14;;;;;;;10.27;10.07;;;23.00;58.30;;;;;;4982497;28;20873;-68
2023/04/01 13:18:54;;;;;;;10.20;9.80;;;22.90;58.60;;;;;;5012534;28;20482;-68
2023/04/01 13:21:33;;;;;;;9.73;9.53;;;22.90;59.00;;;;;;4993175;28;20534;-64
2023/04/01 13:24:09;;;;;;;10.33;10.07;;;22.90;58.90;;;;;;4993147;28;20569;-63
2023/04/01 13:26:41;;;;;;;9.90;9.60;;;22.80;58.80;;;;;;4993255;28;20465;-61
2023/04/01 13:29:14;;;;;;;10.77;10.43;;;22.90;58.70;;;;;;5008684;28;20565;-63
2023/04/01 13:31:55;;;;;;;10.50;10.10;;;22.90;58.60;;;;;;5013105;28;20532;-63
2023/04/01 13:34:36;;;;;;;11.03;10.77;;;22.80;58.50;;;;;;5012689;28;20450;-62